createdAt,value
2022-11-06T00:00:48.558Z,0.00
2022-11-06T00:01:48.590Z,0.00
2022-11-06T00:02:48.645Z,0.00
2022-11-06T00:03:48.558Z,0.00
2022-11-06T00:04:48.534Z,0.00
2022-11-06T00:05:48.539Z,0.00
2022-11-06T00:06:48.527Z,0.00
2022-11-06T00:07:48.519Z,0.00
2022-11-06T00:08:48.514Z,0.00
2022-11-06T00:09:48.518Z,0.00
2022-11-06T00:10:48.499Z,0.00
2022-11-06T00:11:48.507Z,0.00
2022-11-06T00:12:48.492Z,0.00
2022-11-06T00:13:48.482Z,0.00
2022-11-06T00:14:48.517Z,0.00
2022-11-06T00:15:48.470Z,0.00
2022-11-06T00:16:48.462Z,0.00
2022-11-06T00:17:48.523Z,0.00
2022-11-06T00:18:48.449Z,0.00
2022-11-06T00:19:48.461Z,0.00
2022-11-06T00:20:48.457Z,0.00
2022-11-06T00:21:48.443Z,0.00
2022-11-06T00:22:49.271Z,0.00
2022-11-06T00:23:48.433Z,0.00
2022-11-06T00:24:48.435Z,0.00
2022-11-06T00:25:48.401Z,0.00
2022-11-06T00:26:54.015Z,0.00
2022-11-06T00:27:50.394Z,0.00
2022-11-06T00:28:48.387Z,0.00
2022-11-06T00:29:48.413Z,0.00
2022-11-06T00:30:48.376Z,0.00
2022-11-06T00:31:48.366Z,0.00
2022-11-06T00:32:48.393Z,0.00
2022-11-06T00:33:48.413Z,0.00
2022-11-06T00:34:48.349Z,0.00
2022-11-06T00:35:48.386Z,0.00
2022-11-06T00:36:48.341Z,0.00
2022-11-06T00:37:48.429Z,0.00
2022-11-06T00:38:48.345Z,0.00
2022-11-06T00:39:48.315Z,0.00
2022-11-06T00:40:48.335Z,0.00
2022-11-06T00:41:48.313Z,0.00
2022-11-06T00:42:48.327Z,0.00
2022-11-06T00:43:48.329Z,0.00
2022-11-06T00:44:48.282Z,0.00
2022-11-06T00:45:48.290Z,0.00
2022-11-06T00:46:48.300Z,0.00
2022-11-06T00:47:48.837Z,0.00
2022-11-06T00:48:48.282Z,0.00
2022-11-06T00:49:48.265Z,0.00
2022-11-06T00:50:52.383Z,0.00
2022-11-06T00:52:20.199Z,0.00
2022-11-06T00:52:48.248Z,0.00
2022-11-06T00:53:48.262Z,0.00
2022-11-06T00:54:48.233Z,0.00
2022-11-06T00:55:48.226Z,0.00
2022-11-06T00:56:48.223Z,0.00
2022-11-06T00:57:48.217Z,0.00
2022-11-06T00:58:48.220Z,0.00
2022-11-06T00:59:48.233Z,0.00
2022-11-06T01:00:48.225Z,0.00
2022-11-06T01:01:48.325Z,0.00
2022-11-06T01:02:48.369Z,0.00
2022-11-06T01:03:48.187Z,0.00
2022-11-06T01:04:48.184Z,0.00
2022-11-06T01:05:48.183Z,0.00
2022-11-06T01:06:48.183Z,0.00
2022-11-06T01:07:48.183Z,0.00
2022-11-06T01:08:48.180Z,0.00
2022-11-06T01:09:48.168Z,0.00
2022-11-06T01:10:48.140Z,0.00
2022-11-06T01:12:50.126Z,0.00
2022-11-06T01:13:48.141Z,0.00
2022-11-06T01:14:48.126Z,0.00
2022-11-06T01:15:48.136Z,0.00
2022-11-06T01:16:48.124Z,0.00
2022-11-06T01:17:48.109Z,0.00
2022-11-06T01:18:48.103Z,0.00
2022-11-06T01:19:48.239Z,0.00
2022-11-06T01:20:48.080Z,0.00
2022-11-06T01:21:48.096Z,0.00
2022-11-06T01:22:48.074Z,0.00
2022-11-06T01:23:48.060Z,0.00
2022-11-06T01:24:48.259Z,0.00
2022-11-06T01:25:48.056Z,0.00
2022-11-06T01:27:11.968Z,0.00
2022-11-06T01:27:50.055Z,0.00
2022-11-06T01:28:48.034Z,0.00
2022-11-06T01:29:48.057Z,0.00
2022-11-06T01:30:48.022Z,0.00
2022-11-06T01:31:48.022Z,0.00
2022-11-06T01:32:48.022Z,0.00
2022-11-06T01:33:48.006Z,0.00
2022-11-06T01:34:48.029Z,0.00
2022-11-06T01:35:48.985Z,0.00
2022-11-06T01:36:47.996Z,0.00
2022-11-06T01:37:47.977Z,0.00
2022-11-06T01:38:47.973Z,0.00
2022-11-06T01:39:47.969Z,0.00
2022-11-06T01:40:47.973Z,0.00
2022-11-06T01:41:47.959Z,0.00
2022-11-06T01:42:47.977Z,0.00
2022-11-06T01:43:47.937Z,0.00
2022-11-06T01:44:47.929Z,0.00
2022-11-06T01:45:47.954Z,0.00
2022-11-06T01:46:47.935Z,0.00
2022-11-06T01:47:47.921Z,0.00
2022-11-06T01:48:47.945Z,0.00
2022-11-06T01:49:47.921Z,0.00
2022-11-06T01:50:47.989Z,0.00
2022-11-06T01:51:47.906Z,0.00
2022-11-06T01:52:47.897Z,0.00
2022-11-06T01:53:47.895Z,0.00
2022-11-06T01:54:47.885Z,0.00
2022-11-06T01:55:47.901Z,0.00
2022-11-06T01:56:47.878Z,0.00
2022-11-06T01:57:47.878Z,0.00
2022-11-06T01:58:47.865Z,0.00
2022-11-06T01:59:47.882Z,0.00
2022-11-06T02:00:47.866Z,0.00
2022-11-06T02:01:47.900Z,0.00
2022-11-06T02:02:48.008Z,0.00
2022-11-06T02:03:47.835Z,0.00
2022-11-06T02:04:47.816Z,0.00
2022-11-06T02:05:47.830Z,0.00
2022-11-06T02:06:47.822Z,0.00
2022-11-06T02:07:47.814Z,0.00
2022-11-06T02:08:47.799Z,0.00
2022-11-06T02:09:47.802Z,0.00
2022-11-06T02:10:47.778Z,0.00
2022-11-06T02:11:47.943Z,0.00
2022-11-06T02:12:47.778Z,0.00
2022-11-06T02:13:47.917Z,0.00
2022-11-06T02:14:47.774Z,0.00
2022-11-06T02:15:47.761Z,0.00
2022-11-06T02:16:47.794Z,0.00
2022-11-06T02:17:47.772Z,0.00
2022-11-06T02:18:47.766Z,0.00
2022-11-06T02:19:47.737Z,0.00
2022-11-06T02:20:47.746Z,0.00
2022-11-06T02:21:47.717Z,0.00
2022-11-06T02:22:48.720Z,0.00
2022-11-06T02:23:47.729Z,0.00
2022-11-06T02:24:47.715Z,0.00
2022-11-06T02:25:48.690Z,0.00
2022-11-06T02:26:47.697Z,0.00
2022-11-06T02:27:47.698Z,0.00
2022-11-06T02:28:47.694Z,0.00
2022-11-06T02:29:47.676Z,0.00
2022-11-06T02:30:48.672Z,0.00
2022-11-06T02:31:47.688Z,0.00
2022-11-06T02:32:47.698Z,0.00
2022-11-06T02:33:50.307Z,0.00
2022-11-06T02:34:47.644Z,0.00
2022-11-06T02:35:47.663Z,0.00
2022-11-06T02:36:48.286Z,0.00
2022-11-06T02:37:47.645Z,0.00
2022-11-06T02:38:47.654Z,0.00
2022-11-06T02:39:48.719Z,0.00
2022-11-06T02:40:47.647Z,0.00
2022-11-06T02:41:47.608Z,0.00
2022-11-06T02:42:47.599Z,0.00
2022-11-06T02:43:47.615Z,0.00
2022-11-06T02:44:47.612Z,0.00
2022-11-06T02:45:47.595Z,0.00
2022-11-06T02:46:47.585Z,0.00
2022-11-06T02:47:47.566Z,0.00
2022-11-06T02:48:47.560Z,0.00
2022-11-06T02:49:47.563Z,0.00
2022-11-06T02:50:47.560Z,0.00
2022-11-06T02:51:47.566Z,0.00
2022-11-06T02:52:47.542Z,0.00
2022-11-06T02:53:47.539Z,0.00
2022-11-06T02:54:47.512Z,0.00
2022-11-06T02:55:47.527Z,0.00
2022-11-06T02:56:47.518Z,0.00
2022-11-06T02:57:47.524Z,0.00
2022-11-06T02:58:49.167Z,0.00
2022-11-06T02:59:48.496Z,0.00
2022-11-06T03:00:47.534Z,0.00
2022-11-06T03:01:47.583Z,0.00
2022-11-06T03:02:47.698Z,0.00
2022-11-06T03:03:47.548Z,0.00
2022-11-06T03:04:47.459Z,0.00
2022-11-06T03:05:47.481Z,0.00
2022-11-06T03:06:47.456Z,0.00
2022-11-06T03:07:47.445Z,0.00
2022-11-06T03:08:47.441Z,0.00
2022-11-06T03:09:47.452Z,0.00
2022-11-06T03:10:47.458Z,0.00
2022-11-06T03:11:47.424Z,0.00
2022-11-06T03:12:47.424Z,0.00
2022-11-06T03:13:47.430Z,0.00
2022-11-06T03:14:47.415Z,0.00
2022-11-06T03:15:47.415Z,0.00
2022-11-06T03:16:47.425Z,0.00
2022-11-06T03:17:47.400Z,0.00
2022-11-06T03:18:47.412Z,0.00
2022-11-06T03:19:47.376Z,0.00
2022-11-06T03:20:47.376Z,0.00
2022-11-06T03:21:47.391Z,0.00
2022-11-06T03:22:47.368Z,0.00
2022-11-06T03:23:47.376Z,0.00
2022-11-06T03:24:47.348Z,0.00
2022-11-06T03:25:47.349Z,0.00
2022-11-06T03:26:47.355Z,0.00
2022-11-06T03:27:47.348Z,0.00
2022-11-06T03:28:47.325Z,0.00
2022-11-06T03:29:47.315Z,0.00
2022-11-06T03:30:47.319Z,0.00
2022-11-06T03:31:47.297Z,0.00
2022-11-06T03:32:47.324Z,0.00
2022-11-06T03:33:47.308Z,0.00
2022-11-06T03:34:47.293Z,0.00
2022-11-06T03:35:47.281Z,0.00
2022-11-06T03:36:47.289Z,0.00
2022-11-06T03:37:47.289Z,0.00
2022-11-06T03:38:47.261Z,0.00
2022-11-06T03:39:47.256Z,0.00
2022-11-06T03:40:47.241Z,0.00
2022-11-06T03:41:48.254Z,0.00
2022-11-06T03:42:47.265Z,0.00
2022-11-06T03:43:47.256Z,0.00
2022-11-06T03:44:47.224Z,0.00
2022-11-06T03:45:47.218Z,0.00
2022-11-06T03:46:47.246Z,0.00
2022-11-06T03:47:47.224Z,0.00
2022-11-06T03:48:47.226Z,0.00
2022-11-06T03:49:47.219Z,0.00
2022-11-06T03:50:47.201Z,0.00
2022-11-06T03:51:47.184Z,0.00
2022-11-06T03:52:47.193Z,0.00
2022-11-06T03:53:47.193Z,0.00
2022-11-06T03:54:47.184Z,0.00
2022-11-06T03:55:47.160Z,0.00
2022-11-06T03:56:47.164Z,0.00
2022-11-06T03:57:47.169Z,0.00
2022-11-06T03:58:47.245Z,0.00
2022-11-06T03:59:47.138Z,0.00
2022-11-06T04:00:47.150Z,0.00
2022-11-06T04:01:47.223Z,0.00
2022-11-06T04:02:47.264Z,0.00
2022-11-06T04:03:47.129Z,0.00
2022-11-06T04:04:47.113Z,0.00
2022-11-06T04:05:47.117Z,0.00
2022-11-06T04:06:47.101Z,0.00
2022-11-06T04:07:47.100Z,0.00
2022-11-06T04:08:47.097Z,0.00
2022-11-06T04:09:47.085Z,0.00
2022-11-06T04:10:47.073Z,0.00
2022-11-06T04:11:47.085Z,0.00
2022-11-06T04:12:47.084Z,0.00
2022-11-06T04:13:47.067Z,0.00
2022-11-06T04:14:48.099Z,0.00
2022-11-06T04:15:47.058Z,0.00
2022-11-06T04:16:47.036Z,0.00
2022-11-06T04:17:47.033Z,0.00
2022-11-06T04:18:47.037Z,0.00
2022-11-06T04:19:47.032Z,0.00
2022-11-06T04:20:47.028Z,0.00
2022-11-06T04:21:47.025Z,0.00
2022-11-06T04:22:47.027Z,0.00
2022-11-06T04:23:47.013Z,0.00
2022-11-06T04:24:47.045Z,0.00
2022-11-06T04:25:46.994Z,0.00
2022-11-06T04:26:47.005Z,0.00
2022-11-06T04:27:46.985Z,0.00
2022-11-06T04:28:46.990Z,0.00
2022-11-06T04:29:47.000Z,0.00
2022-11-06T04:30:46.961Z,0.00
2022-11-06T04:31:46.954Z,0.00
2022-11-06T04:32:46.957Z,0.00
2022-11-06T04:33:46.933Z,0.00
2022-11-06T04:34:46.953Z,0.00
2022-11-06T04:35:46.941Z,0.00
2022-11-06T04:36:46.915Z,0.00
2022-11-06T04:37:47.921Z,0.00
2022-11-06T04:38:46.933Z,0.00
2022-11-06T04:39:46.937Z,0.00
2022-11-06T04:40:46.913Z,0.00
2022-11-06T04:41:46.903Z,0.00
2022-11-06T04:42:46.910Z,0.00
2022-11-06T04:43:46.882Z,0.00
2022-11-06T04:44:46.889Z,0.00
2022-11-06T04:45:46.888Z,0.00
2022-11-06T04:46:46.876Z,0.00
2022-11-06T04:47:46.863Z,0.00
2022-11-06T04:48:46.856Z,0.00
2022-11-06T04:49:46.872Z,0.00
2022-11-06T04:50:46.849Z,0.00
2022-11-06T04:51:46.853Z,0.00
2022-11-06T04:52:46.828Z,0.00
2022-11-06T04:53:47.915Z,0.00
2022-11-06T04:54:46.854Z,0.00
2022-11-06T04:55:46.823Z,0.00
2022-11-06T04:56:46.905Z,0.00
2022-11-06T04:57:46.809Z,0.00
2022-11-06T04:58:46.802Z,0.00
2022-11-06T04:59:46.822Z,0.00
2022-11-06T05:00:46.860Z,0.00
2022-11-06T05:01:47.976Z,0.00
2022-11-06T05:02:46.771Z,0.00
2022-11-06T05:03:46.762Z,0.00
2022-11-06T05:04:46.787Z,0.00
2022-11-06T05:05:46.771Z,0.00
2022-11-06T05:06:46.749Z,0.00
2022-11-06T05:07:46.755Z,0.00
2022-11-06T05:08:46.735Z,0.00
2022-11-06T05:09:46.725Z,0.00
2022-11-06T05:10:46.728Z,0.00
2022-11-06T05:11:46.717Z,0.00
2022-11-06T05:12:46.702Z,0.00
2022-11-06T05:13:46.705Z,0.00
2022-11-06T05:14:46.700Z,0.00
2022-11-06T05:15:46.712Z,0.00
2022-11-06T05:16:46.683Z,0.00
2022-11-06T05:17:46.696Z,0.00
2022-11-06T05:18:46.658Z,0.00
2022-11-06T05:19:46.662Z,0.00
2022-11-06T05:20:46.657Z,0.00
2022-11-06T05:21:46.691Z,0.00
2022-11-06T05:22:46.652Z,0.00
2022-11-06T05:23:46.656Z,0.00
2022-11-06T05:24:46.635Z,0.00
2022-11-06T05:25:46.630Z,0.00
2022-11-06T05:26:46.680Z,0.00
2022-11-06T05:27:46.621Z,0.00
2022-11-06T05:28:46.619Z,0.00
2022-11-06T05:29:46.602Z,0.00
2022-11-06T05:30:46.595Z,0.00
2022-11-06T05:31:46.751Z,0.00
2022-11-06T05:32:46.601Z,0.00
2022-11-06T05:33:46.599Z,0.00
2022-11-06T05:34:46.564Z,0.00
2022-11-06T05:35:46.563Z,0.00
2022-11-06T05:36:46.756Z,0.00
2022-11-06T05:37:46.543Z,0.00
2022-11-06T05:38:46.542Z,0.00
2022-11-06T05:39:46.540Z,0.00
2022-11-06T05:40:46.544Z,0.00
2022-11-06T05:41:46.621Z,0.00
2022-11-06T05:42:46.533Z,0.00
2022-11-06T05:43:46.510Z,0.00
2022-11-06T05:44:46.517Z,0.00
2022-11-06T05:45:46.506Z,0.00
2022-11-06T05:46:49.343Z,0.00
2022-11-06T05:47:47.480Z,0.00
2022-11-06T05:48:46.487Z,0.00
2022-11-06T05:49:46.484Z,0.00
2022-11-06T05:50:46.500Z,0.00
2022-11-06T05:51:46.489Z,0.00
2022-11-06T05:52:46.514Z,0.00
2022-11-06T05:53:46.451Z,0.00
2022-11-06T05:54:46.442Z,0.00
2022-11-06T05:55:46.445Z,0.00
2022-11-06T05:56:46.447Z,0.00
2022-11-06T05:57:46.438Z,0.00
2022-11-06T05:58:46.425Z,0.00
2022-11-06T05:59:46.427Z,0.00
2022-11-06T06:00:46.427Z,0.00
2022-11-06T06:01:46.506Z,0.00
2022-11-06T06:02:46.604Z,0.00
2022-11-06T06:03:46.396Z,0.00
2022-11-06T06:04:46.384Z,0.00
2022-11-06T06:05:46.387Z,0.00
2022-11-06T06:06:46.374Z,0.00
2022-11-06T06:07:46.394Z,0.00
2022-11-06T06:08:46.364Z,0.00
2022-11-06T06:09:46.364Z,0.00
2022-11-06T06:10:46.357Z,0.00
2022-11-06T06:11:46.340Z,0.00
2022-11-06T06:12:46.353Z,0.00
2022-11-06T06:13:46.374Z,0.00
2022-11-06T06:14:50.218Z,0.00
2022-11-06T06:15:47.324Z,0.00
2022-11-06T06:16:46.306Z,0.00
2022-11-06T06:17:46.302Z,0.00
2022-11-06T06:18:46.322Z,0.00
2022-11-06T06:19:46.288Z,0.00
2022-11-06T06:20:46.312Z,0.00
2022-11-06T06:21:46.343Z,0.00
2022-11-06T06:22:46.308Z,0.00
2022-11-06T06:23:46.279Z,0.00
2022-11-06T06:24:46.295Z,0.00
2022-11-06T06:25:46.307Z,0.00
2022-11-06T06:26:46.271Z,0.00
2022-11-06T06:27:46.247Z,0.00
2022-11-06T06:28:46.282Z,0.00
2022-11-06T06:29:46.249Z,0.00
2022-11-06T06:30:46.241Z,0.00
2022-11-06T06:31:46.235Z,0.00
2022-11-06T06:32:46.255Z,5.62
2022-11-06T06:33:46.237Z,5.62
2022-11-06T06:34:47.203Z,5.62
2022-11-06T06:35:46.207Z,5.62
2022-11-06T06:36:46.211Z,5.62
2022-11-06T06:37:46.176Z,5.62
2022-11-06T06:38:46.228Z,11.25
2022-11-06T06:39:46.163Z,11.25
2022-11-06T06:40:46.181Z,11.25
2022-11-06T06:41:46.172Z,11.25
2022-11-06T06:42:46.162Z,16.88
2022-11-06T06:43:46.145Z,16.88
2022-11-06T06:44:46.163Z,16.88
2022-11-06T06:45:46.166Z,16.88
2022-11-06T06:46:46.149Z,16.88
2022-11-06T06:47:46.135Z,16.88
2022-11-06T06:48:46.117Z,16.88
2022-11-06T06:49:46.131Z,16.88
2022-11-06T06:50:46.116Z,16.88
2022-11-06T06:52:21.633Z,16.88
2022-11-06T06:52:46.098Z,16.88
2022-11-06T06:53:46.082Z,16.88
2022-11-06T06:54:46.114Z,22.50
2022-11-06T06:55:46.084Z,22.50
2022-11-06T06:56:46.079Z,22.50
2022-11-06T06:57:46.051Z,22.50
2022-11-06T06:58:46.058Z,28.12
2022-11-06T06:59:46.056Z,28.12
2022-11-06T07:00:46.112Z,28.12
2022-11-06T07:01:46.169Z,28.12
2022-11-06T07:02:46.035Z,28.12
2022-11-06T07:03:46.019Z,28.12
2022-11-06T07:04:46.030Z,28.12
2022-11-06T07:05:46.015Z,33.75
2022-11-06T07:06:46.019Z,33.75
2022-11-06T07:07:46.008Z,33.75
2022-11-06T07:08:45.999Z,33.75
2022-11-06T07:09:45.999Z,33.75
2022-11-06T07:10:45.970Z,33.75
2022-11-06T07:11:46.160Z,33.75
2022-11-06T07:12:45.967Z,33.75
2022-11-06T07:13:45.962Z,39.38
2022-11-06T07:14:45.971Z,39.38
2022-11-06T07:15:45.951Z,33.75
2022-11-06T07:16:51.062Z,39.38
2022-11-06T07:17:48.130Z,39.38
2022-11-06T07:18:45.932Z,39.38
2022-11-06T07:19:45.927Z,39.38
2022-11-06T07:20:45.940Z,33.75
2022-11-06T07:21:45.931Z,33.75
2022-11-06T07:22:45.935Z,39.38
2022-11-06T07:23:45.920Z,39.38
2022-11-06T07:24:45.899Z,39.38
2022-11-06T07:25:45.892Z,39.38
2022-11-06T07:26:45.950Z,39.38
2022-11-06T07:27:45.878Z,39.38
2022-11-06T07:28:45.866Z,39.38
2022-11-06T07:29:45.871Z,39.38
2022-11-06T07:30:45.858Z,45.00
2022-11-06T07:31:45.863Z,45.00
2022-11-06T07:32:45.855Z,56.25
2022-11-06T07:33:45.855Z,56.25
2022-11-06T07:34:45.834Z,56.25
2022-11-06T07:35:45.818Z,56.25
2022-11-06T07:36:46.790Z,67.50
2022-11-06T07:37:45.890Z,73.12
2022-11-06T07:38:45.834Z,78.75
2022-11-06T07:39:45.819Z,90.00
2022-11-06T07:40:45.803Z,90.00
2022-11-06T07:41:45.852Z,90.00
2022-11-06T07:42:45.785Z,90.00
2022-11-06T07:43:45.774Z,95.62
2022-11-06T07:44:45.810Z,95.62
2022-11-06T07:45:45.772Z,95.62
2022-11-06T07:46:45.794Z,95.62
2022-11-06T07:47:45.770Z,95.62
2022-11-06T07:48:46.682Z,95.62
2022-11-06T07:49:50.736Z,101.25
2022-11-06T07:50:47.762Z,106.88
2022-11-06T07:51:45.737Z,112.50
2022-11-06T07:52:45.743Z,118.12
2022-11-06T07:53:45.753Z,123.75
2022-11-06T07:54:45.710Z,118.12
2022-11-06T07:55:45.714Z,112.50
2022-11-06T07:56:45.750Z,106.88
2022-11-06T07:57:45.765Z,118.12
2022-11-06T07:58:45.708Z,118.12
2022-11-06T07:59:45.794Z,123.75
2022-11-06T08:00:45.722Z,129.38
2022-11-06T08:01:45.878Z,129.38
2022-11-06T08:02:45.686Z,146.25
2022-11-06T08:03:45.686Z,168.75
2022-11-06T08:04:45.703Z,180.00
2022-11-06T08:05:45.669Z,585.00
2022-11-06T08:06:45.647Z,264.38
2022-11-06T08:07:45.657Z,826.88
2022-11-06T08:08:45.670Z,843.75
2022-11-06T08:09:45.682Z,1597.50
2022-11-06T08:10:45.637Z,1552.50
2022-11-06T08:11:45.679Z,1423.12
2022-11-06T08:12:45.624Z,1726.88
2022-11-06T08:13:45.610Z,1659.38
2022-11-06T08:14:45.681Z,1558.12
2022-11-06T08:15:46.294Z,652.50
2022-11-06T08:16:45.597Z,1681.88
2022-11-06T08:17:45.633Z,635.62
2022-11-06T08:18:45.585Z,1676.25
2022-11-06T08:19:45.848Z,1456.88
2022-11-06T08:20:45.560Z,1462.50
2022-11-06T08:21:45.561Z,1687.50
2022-11-06T08:22:45.547Z,1614.38
2022-11-06T08:23:45.622Z,1625.62
2022-11-06T08:24:45.533Z,1681.88
2022-11-06T08:25:45.563Z,1479.38
2022-11-06T08:26:45.524Z,1563.75
2022-11-06T08:27:45.508Z,1749.38
2022-11-06T08:28:45.527Z,1923.75
2022-11-06T08:29:45.532Z,1878.75
2022-11-06T08:30:45.524Z,1828.12
2022-11-06T08:31:45.552Z,1850.62
2022-11-06T08:32:45.508Z,2064.38
2022-11-06T08:33:45.475Z,2289.38
2022-11-06T08:34:45.496Z,2109.38
2022-11-06T08:35:45.468Z,1861.88
2022-11-06T08:36:49.288Z,1833.75
2022-11-06T08:37:46.463Z,1968.75
2022-11-06T08:38:45.472Z,1974.38
2022-11-06T08:39:45.451Z,2227.50
2022-11-06T08:40:50.748Z,2390.62
2022-11-06T08:41:47.460Z,2199.38
2022-11-06T08:42:45.449Z,2340.00
2022-11-06T08:43:45.425Z,2311.88
2022-11-06T08:44:45.433Z,804.38
2022-11-06T08:45:45.418Z,1980.00
2022-11-06T08:46:50.782Z,2334.38
2022-11-06T08:47:47.440Z,1192.50
2022-11-06T08:48:45.400Z,2160.00
2022-11-06T08:49:45.407Z,2092.50
2022-11-06T08:50:45.409Z,2160.00
2022-11-06T08:51:45.456Z,2193.75
2022-11-06T08:52:45.383Z,2272.50
2022-11-06T08:53:45.426Z,2289.38
2022-11-06T08:54:45.384Z,2041.88
2022-11-06T08:55:45.365Z,2053.12
2022-11-06T08:56:45.363Z,1755.00
2022-11-06T08:57:45.353Z,2390.62
2022-11-06T08:58:45.360Z,2435.62
2022-11-06T08:59:45.340Z,2581.88
2022-11-06T09:00:45.363Z,2520.00
2022-11-06T09:01:45.512Z,2430.00
2022-11-06T09:02:45.341Z,2356.88
2022-11-06T09:03:45.311Z,1884.38
2022-11-06T09:04:45.331Z,2058.75
2022-11-06T09:05:45.288Z,2716.88
2022-11-06T09:06:45.286Z,2362.50
2022-11-06T09:07:45.288Z,2126.25
2022-11-06T09:08:45.305Z,1906.88
2022-11-06T09:09:45.277Z,1850.62
2022-11-06T09:10:45.262Z,2486.25
2022-11-06T09:11:45.271Z,2812.50
2022-11-06T09:12:45.263Z,2694.38
2022-11-06T09:13:45.245Z,2756.25
2022-11-06T09:14:45.258Z,2250.00
2022-11-06T09:15:45.250Z,2086.88
2022-11-06T09:16:45.236Z,2638.12
2022-11-06T09:17:45.253Z,2446.88
2022-11-06T09:18:45.253Z,1777.50
2022-11-06T09:19:45.195Z,1642.50
2022-11-06T09:20:45.196Z,2086.88
2022-11-06T09:21:48.004Z,2418.75
2022-11-06T09:22:46.221Z,2525.62
2022-11-06T09:23:45.172Z,2671.88
2022-11-06T09:25:02.694Z,1586.25
2022-11-06T09:25:47.171Z,2536.88
2022-11-06T09:26:45.158Z,2525.62
2022-11-06T09:27:45.157Z,2576.25
2022-11-06T09:28:45.161Z,2345.62
2022-11-06T09:29:45.147Z,2317.50
2022-11-06T09:30:45.135Z,2525.62
2022-11-06T09:31:45.162Z,2446.88
2022-11-06T09:32:45.126Z,2334.38
2022-11-06T09:33:45.129Z,2300.62
2022-11-06T09:34:45.114Z,1479.38
2022-11-06T09:35:45.125Z,2137.50
2022-11-06T09:36:45.124Z,1957.50
2022-11-06T09:37:45.128Z,2469.38
2022-11-06T09:38:45.215Z,2660.62
2022-11-06T09:39:45.109Z,2705.62
2022-11-06T09:40:45.092Z,2705.62
2022-11-06T09:41:45.072Z,2930.62
2022-11-06T09:42:45.064Z,2137.50
2022-11-06T09:44:47.056Z,1968.75
2022-11-06T09:45:45.060Z,2565.00
2022-11-06T09:46:45.056Z,2688.75
2022-11-06T09:47:45.029Z,2750.62
2022-11-06T09:48:45.038Z,2435.62
2022-11-06T09:49:45.038Z,2452.50
2022-11-06T09:50:45.983Z,2593.12
2022-11-06T09:51:45.034Z,2795.62
2022-11-06T09:52:45.066Z,2913.75
2022-11-06T09:53:45.069Z,2919.38
2022-11-06T09:54:45.121Z,2812.50
2022-11-06T09:55:45.203Z,2795.62
2022-11-06T09:56:45.030Z,3003.75
2022-11-06T09:57:44.991Z,2120.62
2022-11-06T09:58:44.980Z,2739.38
2022-11-06T09:59:45.020Z,2677.50
2022-11-06T10:00:44.982Z,2851.88
2022-11-06T10:01:45.126Z,3178.12
2022-11-06T10:02:44.996Z,2874.38
2022-11-06T10:03:44.934Z,2716.88
2022-11-06T10:04:44.962Z,3026.25
2022-11-06T10:05:44.943Z,3375.00
2022-11-06T10:06:44.925Z,3301.88
2022-11-06T10:07:44.937Z,3307.50
2022-11-06T10:08:44.921Z,3498.75
2022-11-06T10:09:44.960Z,3307.50
2022-11-06T10:10:44.891Z,3031.88
2022-11-06T10:11:44.929Z,2941.88
2022-11-06T10:12:44.890Z,2902.50
2022-11-06T10:13:44.920Z,3138.75
2022-11-06T10:14:44.976Z,3600.00
2022-11-06T10:15:45.019Z,3268.12
2022-11-06T10:16:44.891Z,2728.12
2022-11-06T10:17:44.883Z,2790.00
2022-11-06T10:18:44.892Z,2823.75
2022-11-06T10:19:44.959Z,2818.12
2022-11-06T10:20:44.943Z,3380.62
2022-11-06T10:21:44.844Z,3380.62
2022-11-06T10:22:44.990Z,2885.62
2022-11-06T10:23:44.831Z,2739.38
2022-11-06T10:24:44.810Z,2790.00
2022-11-06T10:25:44.831Z,3189.38
2022-11-06T10:26:44.783Z,3093.75
2022-11-06T10:27:44.778Z,2908.12
2022-11-06T10:28:44.815Z,3110.62
2022-11-06T10:29:44.859Z,3172.50
2022-11-06T10:30:44.776Z,2975.62
2022-11-06T10:31:44.784Z,2823.75
2022-11-06T10:32:44.813Z,3031.88
2022-11-06T10:33:45.347Z,3380.62
2022-11-06T10:34:44.787Z,3015.00
2022-11-06T10:35:44.773Z,2773.12
2022-11-06T10:36:48.818Z,3116.25
2022-11-06T10:37:46.771Z,3391.88
2022-11-06T10:38:44.742Z,3324.38
2022-11-06T10:39:44.801Z,3571.88
2022-11-06T10:40:44.766Z,2986.88
2022-11-06T10:41:44.717Z,2632.50
2022-11-06T10:42:44.744Z,2435.62
2022-11-06T10:43:44.712Z,2390.62
2022-11-06T10:44:44.733Z,2576.25
2022-11-06T10:45:45.386Z,2430.00
2022-11-06T10:46:44.730Z,2036.25
2022-11-06T10:47:44.719Z,1530.00
2022-11-06T10:48:44.676Z,1383.75
2022-11-06T10:49:45.374Z,1659.38
2022-11-06T10:50:44.712Z,2171.25
2022-11-06T10:51:44.688Z,2868.75
2022-11-06T10:52:44.663Z,2998.12
2022-11-06T10:53:45.832Z,3391.88
2022-11-06T10:54:44.677Z,3436.88
2022-11-06T10:55:44.696Z,2773.12
2022-11-06T10:56:44.882Z,2846.25
2022-11-06T10:57:45.359Z,3099.38
2022-11-06T10:58:44.755Z,3251.25
2022-11-06T10:59:44.633Z,3195.00
2022-11-06T11:00:44.698Z,3043.12
2022-11-06T11:01:44.807Z,2801.25
2022-11-06T11:02:44.668Z,2643.75
2022-11-06T11:03:44.626Z,2761.88
2022-11-06T11:04:44.633Z,2716.88
2022-11-06T11:05:44.638Z,2626.88
2022-11-06T11:06:44.611Z,2902.50
2022-11-06T11:07:45.039Z,2728.12
2022-11-06T11:08:44.628Z,2587.50
2022-11-06T11:09:44.625Z,2638.12
2022-11-06T11:10:56.077Z,2722.50
2022-11-06T11:11:46.591Z,2773.12
2022-11-06T11:12:44.655Z,2688.75
2022-11-06T11:13:44.754Z,2368.12
2022-11-06T11:14:45.523Z,2058.75
2022-11-06T11:15:46.305Z,1940.62
2022-11-06T11:16:44.653Z,2148.75
2022-11-06T11:17:44.664Z,2221.88
2022-11-06T11:18:44.690Z,2120.62
2022-11-06T11:19:44.663Z,2255.62
2022-11-06T11:20:44.628Z,2345.62
2022-11-06T11:21:44.778Z,2452.50
2022-11-06T11:22:44.694Z,2655.00
2022-11-06T11:23:44.607Z,2711.25
2022-11-06T11:24:44.547Z,2486.25
2022-11-06T11:25:44.543Z,2221.88
2022-11-06T11:26:44.601Z,2407.50
2022-11-06T11:27:44.514Z,2604.38
2022-11-06T11:28:44.548Z,2385.00
2022-11-06T11:29:44.520Z,2283.75
2022-11-06T11:30:44.521Z,2390.62
2022-11-06T11:31:44.513Z,2626.88
2022-11-06T11:32:44.494Z,2655.00
2022-11-06T11:33:44.487Z,2604.38
2022-11-06T11:34:49.203Z,2536.88
2022-11-06T11:35:46.516Z,2688.75
2022-11-06T11:36:44.536Z,2508.75
2022-11-06T11:37:44.568Z,1856.25
2022-11-06T11:38:44.453Z,1974.38
2022-11-06T11:39:44.448Z,2300.62
2022-11-06T11:40:44.486Z,2266.88
2022-11-06T11:41:44.480Z,2137.50
2022-11-06T11:42:44.507Z,2143.12
2022-11-06T11:43:44.428Z,2092.50
2022-11-06T11:44:44.442Z,2109.38
2022-11-06T11:45:44.563Z,2362.50
2022-11-06T11:46:44.421Z,2396.25
2022-11-06T11:47:44.417Z,2520.00
2022-11-06T11:48:44.424Z,2947.50
2022-11-06T11:49:44.628Z,3076.88
2022-11-06T11:50:44.415Z,2536.88
2022-11-06T11:51:44.401Z,2300.62
2022-11-06T11:54:05.350Z,3200.62
2022-11-06T11:54:44.384Z,3138.75
2022-11-06T11:55:44.453Z,3262.50
2022-11-06T11:57:03.744Z,3223.12
2022-11-06T11:57:46.417Z,2463.75
2022-11-06T11:58:44.376Z,2486.25
2022-11-06T11:59:44.461Z,2964.38
2022-11-06T12:00:44.506Z,2964.38
2022-11-06T12:01:44.491Z,3206.25
2022-11-06T12:02:44.449Z,2908.12
2022-11-06T12:03:44.650Z,3037.50
2022-11-06T12:04:44.391Z,3088.12
2022-11-06T12:05:44.334Z,3099.38
2022-11-06T12:06:44.307Z,3330.00
2022-11-06T12:07:46.424Z,3037.50
2022-11-06T12:08:45.307Z,2851.88
2022-11-06T12:09:44.304Z,2829.38
2022-11-06T12:10:44.315Z,2795.62
2022-11-06T12:11:44.300Z,2475.00
2022-11-06T12:12:44.873Z,2148.75
2022-11-06T12:13:44.276Z,1923.75
2022-11-06T12:14:44.861Z,1524.38
2022-11-06T12:15:44.347Z,1766.25
2022-11-06T12:16:44.281Z,1710.00
2022-11-06T12:17:44.378Z,1029.38
2022-11-06T12:18:44.274Z,1704.38
2022-11-06T12:19:44.264Z,1783.12
2022-11-06T12:20:44.249Z,781.88
2022-11-06T12:21:44.328Z,2171.25
2022-11-06T12:22:44.272Z,2733.75
2022-11-06T12:23:44.522Z,2840.62
2022-11-06T12:24:44.227Z,2165.62
2022-11-06T12:25:44.369Z,2092.50
2022-11-06T12:26:44.219Z,2660.62
2022-11-06T12:27:44.498Z,2632.50
2022-11-06T12:28:44.209Z,2013.75
2022-11-06T12:29:45.248Z,1771.88
2022-11-06T12:30:44.249Z,2565.00
2022-11-06T12:31:44.267Z,2413.12
2022-11-06T12:32:44.334Z,2829.38
2022-11-06T12:34:05.722Z,2542.50
2022-11-06T12:34:46.203Z,1282.50
2022-11-06T12:35:44.329Z,1288.12
2022-11-06T12:36:45.392Z,1192.50
2022-11-06T12:37:44.208Z,956.25
2022-11-06T12:38:44.476Z,1299.38
2022-11-06T12:39:44.190Z,933.75
2022-11-06T12:40:44.193Z,1085.62
2022-11-06T12:41:44.152Z,1800.00
2022-11-06T12:42:44.126Z,2126.25
2022-11-06T12:43:44.149Z,2283.75
2022-11-06T12:44:44.140Z,2559.38
2022-11-06T12:45:44.118Z,2767.50
2022-11-06T12:46:44.115Z,2806.88
2022-11-06T12:47:44.092Z,2694.38
2022-11-06T12:48:44.104Z,2216.25
2022-11-06T12:49:44.086Z,1698.75